Time,TemperatureF,DewpointF,PressureIn,WindDirection,WindDirectionDegrees,WindSpeedMPH,WindSpeedGustMPH,Humidity,HourlyPrecipIn,Conditions,Clouds,dailyrainin,SoftwareType,DateUTC
2013-03-06 00:02:00,29.0,29.0,-100.00,SSW,202,2.0,3.0,99,0.00,,,2.23,,2013-03-06 05:02:00,
2013-03-06 00:12:00,29.0,29.0,-100.00,SSW,202,2.0,3.0,99,0.00,,,2.23,,2013-03-06 05:12:00,
2013-03-06 00:22:00,29.0,29.0,-100.00,WSW,258,4.0,5.0,100,0.00,,,2.24,,2013-03-06 05:22:00,
2013-03-06 00:32:00,29.0,29.0,-100.00,SW,220,5.0,9.0,100,0.03,,,2.24,,2013-03-06 05:32:00,
2013-03-06 00:42:00,29.0,29.0,-100.00,SW,220,5.0,9.0,100,0.03,,,2.24,,2013-03-06 05:42:00,
2013-03-06 00:52:00,29.0,29.0,-100.00,SW,219,4.0,9.0,100,0.06,,,2.24,,2013-03-06 05:52:00,
2013-03-06 01:02:00,28.0,28.0,-100.00,SW,226,4.0,6.0,100,0.03,,,2.25,,2013-03-06 06:02:00,
2013-03-06 01:11:00,28.0,28.0,-100.00,SW,226,4.0,6.0,100,0.03,,,2.25,,2013-03-06 06:11:00,
2013-03-06 01:22:00,27.0,27.0,-100.00,WSW,253,4.0,6.0,100,0.00,,,2.27,,2013-03-06 06:22:00,
2013-03-06 01:32:00,27.0,27.0,-100.00,WSW,253,4.0,6.0,100,0.00,,,2.27,,2013-03-06 06:32:00,
2013-03-06 01:42:00,27.0,27.0,-100.00,WSW,253,4.0,6.0,100,0.00,,,2.27,,2013-03-06 06:42:00,
2013-03-06 01:52:00,27.0,27.0,-100.00,SW,227,5.0,8.0,100,0.01,,,2.29,,2013-03-06 06:52:00,
2013-03-06 02:01:00,27.0,27.0,-100.00,SW,227,5.0,8.0,100,0.01,,,2.29,,2013-03-06 07:01:00,
2013-03-06 02:11:00,27.0,27.0,-100.00,SW,227,5.0,8.0,100,0.01,,,2.29,,2013-03-06 07:11:00,
2013-03-06 02:22:00,26.0,26.0,-100.00,WSW,243,5.0,8.0,100,0.00,,,2.30,,2013-03-06 07:22:00,
2013-03-06 02:32:00,27.0,27.0,-100.00,SW,223,3.0,6.0,100,0.00,,,2.30,,2013-03-06 07:32:00,
2013-03-06 02:42:00,27.0,27.0,-100.00,SW,223,3.0,6.0,100,0.00,,,2.30,,2013-03-06 07:42:00,
2013-03-06 02:52:00,26.0,26.0,-100.00,SSW,203,4.0,8.0,99,0.01,,,2.30,,2013-03-06 07:52:00,
2013-03-06 03:01:00,26.0,26.0,-100.00,SW,234,4.0,7.0,99,0.00,,,2.30,,2013-03-06 08:01:00,
2013-03-06 03:11:00,26.0,26.0,-100.00,SW,234,4.0,7.0,99,0.00,,,2.30,,2013-03-06 08:11:00,
2013-03-06 03:21:00,25.0,24.0,-100.00,SSW,195,2.0,4.0,97,0.04,,,2.30,,2013-03-06 08:21:00,
2013-03-06 03:32:00,25.0,24.0,-100.00,SSW,195,2.0,4.0,97,0.04,,,2.30,,2013-03-06 08:32:00,
2013-03-06 03:42:00,25.0,24.0,-100.00,SSW,195,2.0,4.0,97,0.04,,,2.30,,2013-03-06 08:42:00,
2013-03-06 03:52:00,25.0,25.0,-100.00,SSW,212,3.0,5.0,98,0.07,,,2.33,,2013-03-06 08:52:00,
2013-03-06 04:02:00,25.0,24.0,-100.00,WSW,239,3.0,4.0,98,0.03,,,2.34,,2013-03-06 09:02:00,
2013-03-06 04:12:00,25.0,24.0,-100.00,WSW,239,3.0,4.0,98,0.03,,,2.34,,2013-03-06 09:12:00,
2013-03-06 04:22:00,24.0,24.0,-100.00,SSW,208,2.0,4.0,98,0.03,,,2.35,,2013-03-06 09:22:00,
2013-03-06 04:32:00,25.0,24.0,-100.00,WSW,239,1.0,2.0,99,0.09,,,2.37,,2013-03-06 09:32:00,
2013-03-06 04:42:00,25.0,24.0,-100.00,WSW,239,1.0,2.0,99,0.09,,,2.37,,2013-03-06 09:42:00,
2013-03-06 04:52:00,24.0,24.0,-100.00,SW,229,3.0,4.0,99,0.09,,,2.39,,2013-03-06 09:52:00,
2013-03-06 05:02:00,24.0,24.0,-100.00,SW,226,3.0,6.0,99,0.01,,,2.40,,2013-03-06 10:02:00,
2013-03-06 05:11:00,24.0,24.0,-100.00,SW,226,3.0,6.0,99,0.01,,,2.40,,2013-03-06 10:11:00,
2013-03-06 05:22:00,24.0,24.0,-100.00,WSW,237,2.0,3.0,99,0.01,,,2.41,,2013-03-06 10:22:00,
2013-03-06 05:32:00,24.0,24.0,-100.00,WSW,241,4.0,6.0,99,0.00,,,2.43,,2013-03-06 10:32:00,
2013-03-06 05:42:00,24.0,24.0,-100.00,WSW,241,4.0,6.0,99,0.00,,,2.43,,2013-03-06 10:42:00,
2013-03-06 05:52:00,24.0,24.0,-100.00,SSW,213,2.0,3.0,100,0.06,,,2.44,,2013-03-06 10:52:00,
2013-03-06 06:02:00,24.0,24.0,-100.00,SSW,208,2.0,4.0,100,0.04,,,2.46,,2013-03-06 11:02:00,
2013-03-06 06:11:00,24.0,24.0,-100.00,SSW,208,2.0,4.0,100,0.04,,,2.46,,2013-03-06 11:11:00,
2013-03-06 06:22:00,24.0,24.0,-100.00,SSW,203,2.0,3.0,100,0.04,,,2.46,,2013-03-06 11:22:00,
2013-03-06 06:32:00,24.0,24.0,-100.00,SSW,213,3.0,6.0,100,0.13,,,2.48,,2013-03-06 11:32:00,
2013-03-06 06:42:00,24.0,24.0,-100.00,SSW,213,3.0,6.0,100,0.13,,,2.48,,2013-03-06 11:42:00,
2013-03-06 06:52:00,24.0,24.0,-100.00,SW,219,2.0,4.0,100,0.18,,,2.52,,2013-03-06 11:52:00,
2013-03-06 07:02:00,24.0,24.0,-100.00,SW,215,2.0,3.0,100,0.21,,,2.58,,2013-03-06 12:02:00,
2013-03-06 07:12:00,24.0,24.0,-100.00,SW,215,2.0,3.0,100,0.21,,,2.58,,2013-03-06 12:12:00,
2013-03-06 07:22:00,24.0,24.0,-100.00,SW,222,1.0,2.0,100,0.13,,,2.61,,2013-03-06 12:22:00,
2013-03-06 07:33:00,24.0,24.0,-100.00,SW,220,2.0,3.0,100,0.00,,,2.62,,2013-03-06 12:33:00,
2013-03-06 07:42:00,24.0,24.0,-100.00,SW,220,2.0,3.0,100,0.00,,,2.62,,2013-03-06 12:42:00,
2013-03-06 07:53:00,24.0,24.0,-100.00,ESE,112,4.0,8.0,100,0.01,,,2.63,,2013-03-06 12:53:00,
2013-03-06 08:02:00,25.0,25.0,-100.00,NE,47,1.0,2.0,100,0.01,,,2.62,,2013-03-06 13:02:00,
2013-03-06 08:12:00,25.0,25.0,-100.00,NE,47,1.0,2.0,100,0.01,,,2.62,,2013-03-06 13:12:00,
2013-03-06 08:22:00,24.0,24.0,-100.00,East,85,2.0,5.0,100,0.00,,,2.59,,2013-03-06 13:22:00,
2013-03-06 08:32:00,25.0,25.0,-100.00,South,191,2.0,4.0,100,0.11,,,2.55,,2013-03-06 13:32:00,
2013-03-06 08:42:00,25.0,25.0,-100.00,South,191,2.0,4.0,100,0.11,,,2.55,,2013-03-06 13:42:00,
2013-03-06 08:52:00,25.0,25.0,-100.00,South,172,2.0,3.0,100,0.37,,,2.53,,2013-03-06 13:52:00,
2013-03-06 09:02:00,25.0,25.0,-100.00,South,172,2.0,3.0,100,0.37,,,2.53,,2013-03-06 14:02:00,
2013-03-06 09:11:00,25.0,25.0,-100.00,South,172,2.0,3.0,100,0.37,,,2.53,,2013-03-06 14:11:00,
2013-03-06 09:22:00,25.0,25.0,-100.00,South,172,2.0,3.0,100,0.38,,,2.59,,2013-03-06 14:22:00,
2013-03-06 09:32:00,25.0,25.0,-100.00,South,172,2.0,3.0,100,0.38,,,2.59,,2013-03-06 14:32:00,
2013-03-06 09:42:00,25.0,25.0,-100.00,South,172,2.0,3.0,100,0.38,,,2.59,,2013-03-06 14:42:00,
2013-03-06 09:53:00,26.0,26.0,-100.00,SW,220,1.0,2.0,100,0.31,,,2.62,,2013-03-06 14:53:00,
2013-03-06 10:02:00,25.0,25.0,-100.00,SSE,155,2.0,4.0,100,0.10,,,2.61,,2013-03-06 15:02:00,
2013-03-06 10:12:00,25.0,25.0,-100.00,SSE,155,2.0,4.0,100,0.10,,,2.61,,2013-03-06 15:12:00,
2013-03-06 10:22:00,25.0,25.0,-100.00,SSW,212,1.0,2.0,100,0.06,,,2.59,,2013-03-06 15:22:00,
2013-03-06 10:32:00,26.0,26.0,-100.00,SW,233,1.0,2.0,100,0.01,,,2.58,,2013-03-06 15:32:00,
2013-03-06 10:42:00,26.0,26.0,-100.00,SW,233,1.0,2.0,100,0.01,,,2.58,,2013-03-06 15:42:00,
2013-03-06 10:52:00,25.0,25.0,-100.00,ESE,121,1.0,2.0,100,0.00,,,2.57,,2013-03-06 15:52:00,
2013-03-06 11:02:00,26.0,26.0,-100.00,SE,138,2.0,3.0,100,0.03,,,2.56,,2013-03-06 16:02:00,
2013-03-06 11:12:00,26.0,26.0,-100.00,SE,138,2.0,3.0,100,0.03,,,2.56,,2013-03-06 16:12:00,
2013-03-06 11:21:00,26.0,26.0,-100.00,SSW,209,2.0,2.0,100,0.01,,,2.56,,2013-03-06 16:21:00,
2013-03-06 11:32:00,26.0,26.0,-100.00,WSW,254,3.0,4.0,100,0.00,,,2.56,,2013-03-06 16:32:00,
2013-03-06 11:42:00,26.0,26.0,-100.00,WSW,254,3.0,4.0,100,0.00,,,2.56,,2013-03-06 16:42:00,
2013-03-06 11:52:00,26.0,26.0,-100.00,WSW,254,0.0,1.0,100,0.01,,,2.53,,2013-03-06 16:52:00,
2013-03-06 12:01:00,26.0,26.0,-100.00,SE,124,1.0,2.0,100,0.00,,,2.52,,2013-03-06 17:01:00,
2013-03-06 12:11:00,26.0,26.0,-100.00,SE,124,1.0,2.0,100,0.00,,,2.52,,2013-03-06 17:11:00,
2013-03-06 12:22:00,27.0,27.0,-100.00,South,188,1.0,2.0,100,0.00,,,2.50,,2013-03-06 17:22:00,
2013-03-06 12:32:00,27.0,27.0,-100.00,ESE,116,2.0,3.0,100,0.00,,,2.50,,2013-03-06 17:32:00,
2013-03-06 12:42:00,27.0,27.0,-100.00,ESE,116,2.0,3.0,100,0.00,,,2.50,,2013-03-06 17:42:00,
2013-03-06 12:53:00,27.0,27.0,-100.00,South,184,1.0,3.0,99,0.00,,,2.49,,2013-03-06 17:53:00,
2013-03-06 13:02:00,27.0,26.0,-100.00,SE,124,2.0,3.0,99,0.00,,,2.49,,2013-03-06 18:02:00,
2013-03-06 13:29:00,27.0,26.0,-100.00,SW,219,2.0,3.0,99,0.00,,,2.49,,2013-03-06 18:29:00,
2013-03-06 13:42:00,27.0,26.0,-100.00,SSW,206,3.0,5.0,98,0.01,,,2.49,,2013-03-06 18:42:00,
2013-03-06 13:53:00,27.0,26.0,-100.00,ESE,103,1.0,3.0,99,0.00,,,2.43,,2013-03-06 18:53:00,
2013-03-06 14:02:00,27.0,26.0,-100.00,South,172,2.0,3.0,99,0.00,,,2.34,,2013-03-06 19:02:00,
2013-03-06 14:11:00,27.0,26.0,-100.00,South,172,2.0,3.0,99,0.00,,,2.34,,2013-03-06 19:11:00,
2013-03-06 14:22:00,27.0,26.0,-100.00,South,169,1.0,2.0,98,0.00,,,2.26,,2013-03-06 19:22:00,
2013-03-06 14:32:00,26.0,26.0,-100.00,SSE,167,2.0,4.0,98,0.00,,,2.18,,2013-03-06 19:32:00,
2013-03-06 14:43:00,26.0,26.0,-100.00,SSE,167,2.0,4.0,98,0.00,,,2.18,,2013-03-06 19:43:00,
2013-03-06 14:53:00,26.0,26.0,-100.00,ENE,65,3.0,4.0,98,0.00,,,2.02,,2013-03-06 19:53:00,
2013-03-06 15:02:00,26.0,26.0,-100.00,ENE,65,3.0,4.0,98,0.00,,,2.02,,2013-03-06 20:02:00,
2013-03-06 15:12:00,26.0,26.0,-100.00,ENE,65,3.0,4.0,98,0.00,,,2.02,,2013-03-06 20:12:00,
2013-03-06 15:22:00,26.0,26.0,-100.00,SE,124,2.0,4.0,99,0.00,,,1.94,,2013-03-06 20:22:00,
2013-03-06 15:32:00,26.0,26.0,-100.00,SE,128,3.0,4.0,99,0.00,,,1.91,,2013-03-06 20:32:00,
2013-03-06 15:42:00,26.0,26.0,-100.00,SE,128,3.0,4.0,99,0.00,,,1.91,,2013-03-06 20:42:00,
2013-03-06 15:53:00,26.0,26.0,-100.00,NE,55,4.0,7.0,99,0.00,,,1.91,,2013-03-06 20:53:00,
2013-03-06 16:02:00,26.0,26.0,-100.00,NE,55,4.0,7.0,99,0.00,,,1.91,,2013-03-06 21:02:00,
2013-03-06 16:12:00,26.0,26.0,-100.00,NE,55,4.0,7.0,99,0.00,,,1.91,,2013-03-06 21:12:00,
2013-03-06 16:22:00,26.0,26.0,-100.00,East,100,2.0,2.0,99,0.00,,,1.88,,2013-03-06 21:22:00,
2013-03-06 16:32:00,26.0,26.0,-100.00,East,100,2.0,2.0,99,0.00,,,1.88,,2013-03-06 21:32:00,
2013-03-06 16:42:00,26.0,26.0,-100.00,East,100,2.0,2.0,99,0.00,,,1.88,,2013-03-06 21:42:00,
2013-03-06 16:52:00,27.0,26.0,-100.00,East,79,1.0,2.0,99,0.00,,,1.85,,2013-03-06 21:52:00,
2013-03-06 17:02:00,26.0,26.0,-100.00,SE,140,1.0,1.0,99,0.00,,,1.80,,2013-03-06 22:02:00,
2013-03-06 17:11:00,26.0,26.0,-100.00,SE,140,1.0,1.0,99,0.00,,,1.80,,2013-03-06 22:11:00,
2013-03-06 17:22:00,26.0,26.0,-100.00,SE,141,2.0,3.0,99,0.00,,,1.78,,2013-03-06 22:22:00,
2013-03-06 17:32:00,26.0,26.0,-100.00,SW,230,2.0,3.0,99,0.00,,,1.68,,2013-03-06 22:32:00,
2013-03-06 17:42:00,26.0,26.0,-100.00,SW,230,2.0,3.0,99,0.00,,,1.68,,2013-03-06 22:42:00,
2013-03-06 17:52:00,27.0,26.0,-100.00,East,89,2.0,3.0,99,0.00,,,1.59,,2013-03-06 22:52:00,
2013-03-06 18:01:00,26.0,26.0,-100.00,SW,224,0.0,2.0,99,0.00,,,1.50,,2013-03-06 23:01:00,
2013-03-06 18:11:00,26.0,26.0,-100.00,SW,224,0.0,2.0,99,0.00,,,1.50,,2013-03-06 23:11:00,
2013-03-06 18:22:00,26.0,26.0,-100.00,ESE,121,1.0,2.0,99,0.00,,,1.40,,2013-03-06 23:22:00,
2013-03-06 18:32:00,26.0,26.0,-100.00,SSE,160,1.0,1.0,99,0.00,,,1.33,,2013-03-06 23:32:00,
2013-03-06 18:42:00,26.0,26.0,-100.00,SSE,160,1.0,1.0,99,0.00,,,1.33,,2013-03-06 23:42:00,
2013-03-06 18:52:00,27.0,26.0,-100.00,East,97,1.0,2.0,99,0.00,,,1.33,,2013-03-06 23:52:00,
2013-03-06 19:02:00,26.0,26.0,-100.00,SE,131,1.0,2.0,99,0.00,,,1.29,,2013-03-07 00:02:00,
2013-03-06 19:11:00,26.0,26.0,-100.00,SE,131,1.0,2.0,99,0.00,,,1.29,,2013-03-07 00:11:00,
2013-03-06 19:22:00,26.0,26.0,-100.00,SE,141,1.0,2.0,99,0.00,,,1.26,,2013-03-07 00:22:00,
2013-03-06 19:32:00,26.0,26.0,-100.00,ENE,75,0.0,1.0,99,0.00,,,1.21,,2013-03-07 00:32:00,
2013-03-06 19:42:00,26.0,26.0,-100.00,ENE,75,0.0,1.0,99,0.00,,,1.21,,2013-03-07 00:42:00,
2013-03-06 19:52:00,26.0,26.0,-100.00,ESE,102,0.0,1.0,99,0.00,,,1.21,,2013-03-07 00:52:00,
2013-03-06 20:01:00,26.0,26.0,-100.00,SE,136,0.0,2.0,99,0.00,,,1.19,,2013-03-07 01:01:00,
2013-03-06 20:12:00,26.0,26.0,-100.00,SE,136,0.0,2.0,99,0.00,,,1.19,,2013-03-07 01:12:00,
2013-03-06 20:22:00,27.0,26.0,-100.00,East,88,1.0,2.0,100,0.01,,,1.03,,2013-03-07 01:22:00,
2013-03-06 20:32:00,27.0,26.0,-100.00,East,88,1.0,2.0,100,0.01,,,1.03,,2013-03-07 01:32:00,
2013-03-06 20:42:00,27.0,26.0,-100.00,East,88,1.0,2.0,100,0.01,,,1.03,,2013-03-07 01:42:00,
2013-03-06 20:52:00,26.0,26.0,-100.00,East,100,2.0,4.0,100,0.01,,,0.98,,2013-03-07 01:52:00,
2013-03-06 21:01:00,26.0,26.0,-100.00,East,100,2.0,4.0,100,0.01,,,0.98,,2013-03-07 02:01:00,
2013-03-06 21:11:00,26.0,26.0,-100.00,East,100,2.0,4.0,100,0.01,,,0.98,,2013-03-07 02:11:00,
2013-03-06 21:21:00,26.0,26.0,-100.00,SE,126,1.0,2.0,100,0.00,,,0.84,,2013-03-07 02:21:00,
2013-03-06 21:32:00,26.0,26.0,-100.00,SE,126,1.0,2.0,100,0.00,,,0.84,,2013-03-07 02:32:00,
2013-03-06 21:42:00,26.0,26.0,-100.00,SE,126,1.0,2.0,100,0.00,,,0.84,,2013-03-07 02:42:00,
2013-03-06 21:52:00,26.0,26.0,-100.00,SE,126,1.0,2.0,100,0.00,,,0.84,,2013-03-07 02:52:00,
2013-03-06 22:02:00,26.0,26.0,-100.00,ESE,106,1.0,2.0,100,0.00,,,0.83,,2013-03-07 03:02:00,
2013-03-06 22:12:00,26.0,26.0,-100.00,ESE,106,1.0,2.0,100,0.00,,,0.83,,2013-03-07 03:12:00,
2013-03-06 22:22:00,26.0,26.0,-100.00,ESE,102,3.0,5.0,99,0.00,,,0.83,,2013-03-07 03:22:00,
2013-03-06 22:32:00,26.0,26.0,-100.00,ESE,102,3.0,5.0,99,0.00,,,0.83,,2013-03-07 03:32:00,
2013-03-06 22:42:00,26.0,26.0,-100.00,ESE,102,3.0,5.0,99,0.00,,,0.83,,2013-03-07 03:42:00,
2013-03-06 22:52:00,26.0,26.0,-100.00,SE,124,2.0,4.0,99,0.00,,,0.83,,2013-03-07 03:52:00,
2013-03-06 23:02:00,26.0,26.0,-100.00,SSE,150,1.0,2.0,99,0.00,,,0.83,,2013-03-07 04:02:00,
2013-03-06 23:12:00,26.0,26.0,-100.00,SSE,150,1.0,2.0,99,0.00,,,0.83,,2013-03-07 04:12:00,
2013-03-06 23:22:00,26.0,26.0,-100.00,ENE,64,1.0,2.0,99,0.00,,,0.83,,2013-03-07 04:22:00,
2013-03-06 23:32:00,26.0,26.0,-100.00,West,263,1.0,2.0,99,0.00,,,0.83,,2013-03-07 04:32:00,
2013-03-06 23:42:00,26.0,26.0,-100.00,West,263,1.0,2.0,99,0.00,,,0.83,,2013-03-07 04:42:00,
2013-03-06 23:52:00,26.0,26.0,-100.00,SSE,164,1.0,2.0,99,0.00,,,0.83,,2013-03-07 04:52:00,